createdAt,value
2018-08-23T00:01:32.183Z,100742.00
2018-08-23T00:04:07.179Z,100734.20
2018-08-23T00:06:37.505Z,100738.74
2018-08-23T00:09:09.310Z,100733.05
2018-08-23T00:11:41.969Z,100730.47
2018-08-23T00:14:11.745Z,100732.74
2018-08-23T00:16:45.462Z,100725.59
2018-08-23T00:19:15.920Z,100724.09
2018-08-23T00:21:49.191Z,100723.23
2018-08-23T00:24:23.064Z,100717.48
2018-08-23T00:26:54.647Z,100719.22
2018-08-23T00:29:31.582Z,100718.50
2018-08-23T00:32:08.511Z,100714.56
2018-08-23T00:34:39.392Z,100713.05
2018-08-23T00:37:09.695Z,100714.04
2018-08-23T00:39:39.395Z,100706.95
2018-08-23T00:42:10.793Z,100715.77
2018-08-23T00:44:58.091Z,100712.23
2018-08-23T00:47:32.459Z,100713.97
2018-08-23T00:50:02.290Z,100710.95
2018-08-23T00:52:48.045Z,100707.41
2018-08-23T00:55:27.277Z,100705.55
2018-08-23T00:57:57.006Z,100708.69
2018-08-23T01:00:27.987Z,100711.89
2018-08-23T01:03:03.576Z,100705.03
2018-08-23T01:05:35.303Z,100701.73
2018-08-23T01:08:06.751Z,100702.70
2018-08-23T01:10:38.544Z,100700.15
2018-08-23T01:13:07.928Z,100705.62
2018-08-23T01:15:37.367Z,100699.96
2018-08-23T01:18:15.200Z,100695.86
2018-08-23T01:20:45.841Z,100693.99
2018-08-23T01:23:15.562Z,100691.08
2018-08-23T01:25:46.463Z,100695.73
2018-08-23T01:28:15.836Z,100687.47
2018-08-23T01:30:46.651Z,100689.39
2018-08-23T01:33:21.315Z,100687.27
2018-08-23T01:35:52.177Z,100687.77
2018-08-23T01:38:21.907Z,100680.69
2018-08-23T01:40:58.694Z,100682.02
2018-08-23T01:43:28.375Z,100673.55
2018-08-23T01:45:58.091Z,100673.20
2018-08-23T01:48:27.771Z,100676.05
2018-08-23T01:50:57.623Z,100672.45
2018-08-23T01:53:32.345Z,100669.94
2018-08-23T01:56:02.049Z,100670.71
2018-08-23T01:58:31.809Z,100672.90
2018-08-23T02:01:20.594Z,100669.07
2018-08-23T02:03:50.991Z,100659.66
2018-08-23T02:06:20.468Z,100664.37
2018-08-23T02:08:50.257Z,100659.83
2018-08-23T02:11:19.940Z,100660.50
2018-08-23T02:13:49.729Z,100663.17
2018-08-23T02:16:19.547Z,100659.69
2018-08-23T02:18:49.355Z,100652.67
2018-08-23T02:21:19.133Z,100651.48
2018-08-23T02:23:50.323Z,100654.94
2018-08-23T02:26:19.779Z,100649.53
2018-08-23T02:28:50.499Z,100655.44
2018-08-23T02:31:20.239Z,100652.02
2018-08-23T02:33:50.081Z,100648.13
2018-08-23T02:36:20.053Z,100656.19
2018-08-23T02:38:55.695Z,100651.41
2018-08-23T02:41:25.423Z,100653.33
2018-08-23T02:43:55.275Z,100653.84
2018-08-23T02:46:25.050Z,100648.66
2018-08-23T02:48:54.875Z,100648.60
2018-08-23T02:51:39.183Z,100645.78
2018-08-23T02:54:11.967Z,100647.73
2018-08-23T02:56:45.761Z,100646.63
2018-08-23T02:59:15.473Z,100642.22
2018-08-23T03:01:46.416Z,100643.30
2018-08-23T03:04:17.369Z,100642.89
2018-08-23T03:06:52.034Z,100635.55
2018-08-23T03:09:29.904Z,100643.55
2018-08-23T03:12:00.839Z,100637.81
2018-08-23T03:14:31.309Z,100642.34
2018-08-23T03:17:25.257Z,100644.66
2018-08-23T03:20:17.270Z,100645.12
2018-08-23T03:22:48.667Z,100644.25
2018-08-23T03:25:19.238Z,100642.34
2018-08-23T03:27:49.043Z,100650.05
2018-08-23T03:30:19.545Z,100645.47
2018-08-23T03:32:49.315Z,100649.16
2018-08-23T03:35:19.247Z,100653.62
2018-08-23T03:37:49.078Z,100647.01
2018-08-23T03:40:18.810Z,100650.23
2018-08-23T03:42:48.622Z,100650.75
2018-08-23T03:45:23.607Z,100648.72
2018-08-23T03:47:54.667Z,100645.17
2018-08-23T03:50:24.657Z,100642.39
2018-08-23T03:52:55.494Z,100648.20
2018-08-23T03:55:26.190Z,100649.94
2018-08-23T03:58:01.818Z,100652.03
2018-08-23T04:00:36.659Z,100647.47
2018-08-23T04:03:13.418Z,100652.75
2018-08-23T04:05:43.219Z,100654.48
2018-08-23T04:08:12.745Z,100647.77
2018-08-23T04:10:42.587Z,100651.04
2018-08-23T04:13:12.424Z,100659.34
2018-08-23T04:15:42.376Z,100656.86
2018-08-23T04:18:15.735Z,100658.02
2018-08-23T04:20:54.514Z,100656.13
2018-08-23T04:23:24.510Z,100658.63
2018-08-23T04:25:54.644Z,100660.22
2018-08-23T04:28:24.602Z,100661.22
2018-08-23T04:30:54.474Z,100661.50
2018-08-23T04:33:23.912Z,100661.23
2018-08-23T04:35:53.738Z,100661.52
2018-08-23T04:38:23.634Z,100658.45
2018-08-23T04:40:59.418Z,100657.45
2018-08-23T04:43:29.213Z,100658.79
2018-08-23T04:45:59.315Z,100655.46
2018-08-23T04:48:29.307Z,100656.92
2018-08-23T04:51:00.149Z,100652.69
2018-08-23T04:53:30.329Z,100659.02
2018-08-23T04:56:00.630Z,100656.95
2018-08-23T04:58:31.401Z,100651.65
2018-08-23T05:01:08.845Z,100650.72
2018-08-23T05:03:38.944Z,100652.03
2018-08-23T05:06:15.318Z,100650.66
2018-08-23T05:08:46.562Z,100638.58
2018-08-23T05:11:17.958Z,100638.00
2018-08-23T05:13:48.670Z,100637.67
2018-08-23T05:16:24.779Z,100638.17
2018-08-23T05:18:54.538Z,100633.58
2018-08-23T05:21:24.026Z,100635.58
2018-08-23T05:23:58.224Z,100633.37
2018-08-23T05:26:28.826Z,100632.03
2018-08-23T05:29:04.306Z,100630.44
2018-08-23T05:31:34.682Z,100625.73
2018-08-23T05:34:08.331Z,100622.69
2018-08-23T05:36:38.112Z,100629.30
2018-08-23T05:39:09.649Z,100625.25
2018-08-23T05:41:39.487Z,100635.40
2018-08-23T05:44:15.258Z,100633.16
2018-08-23T05:46:50.088Z,100630.25
2018-08-23T05:49:19.506Z,100633.31
2018-08-23T05:52:01.013Z,100628.22
2018-08-23T05:54:30.448Z,100628.52
2018-08-23T05:56:59.936Z,100626.11
2018-08-23T05:59:29.401Z,100627.72
2018-08-23T06:01:59.289Z,100629.97
2018-08-23T06:04:39.939Z,100618.09
2018-08-23T06:10:00.192Z,100621.70
2018-08-23T06:12:33.747Z,100614.98
2018-08-23T06:15:03.729Z,100616.05
2018-08-23T06:17:33.641Z,100614.73
2018-08-23T06:20:03.500Z,100607.83
2018-08-23T06:22:33.375Z,100609.83
2018-08-23T06:25:07.692Z,100609.64
2018-08-23T06:27:46.667Z,100608.11
2018-08-23T06:30:16.237Z,100600.34
2018-08-23T06:32:46.106Z,100593.32
2018-08-23T06:35:16.152Z,100597.22
2018-08-23T06:37:50.300Z,100600.44
2018-08-23T06:40:19.733Z,100596.56
2018-08-23T06:43:01.427Z,100606.31
2018-08-23T06:45:30.966Z,100591.59
2018-08-23T06:48:02.269Z,100596.16
2018-08-23T06:50:31.902Z,100589.66
2018-08-23T06:53:01.773Z,100588.39
2018-08-23T06:55:35.717Z,100590.69
2018-08-23T06:58:05.670Z,100583.05
2018-08-23T07:00:35.599Z,100581.95
2018-08-23T07:03:06.624Z,100582.09
2018-08-23T07:05:36.184Z,100594.78
2018-08-23T07:08:05.949Z,100585.86
2018-08-23T07:10:35.393Z,100587.80
2018-08-23T07:13:05.527Z,100588.11
2018-08-23T07:15:35.453Z,100585.97
2018-08-23T07:18:20.992Z,100586.14
2018-08-23T07:20:50.917Z,100583.66
2018-08-23T07:23:46.449Z,100583.91
2018-08-23T07:26:16.463Z,100583.06
2018-08-23T07:28:45.905Z,100586.53
2018-08-23T07:31:15.792Z,100583.88
2018-08-23T07:33:49.329Z,100582.50
2018-08-23T07:36:29.471Z,100583.59
2018-08-23T07:38:59.116Z,100586.72
2018-08-23T07:41:49.578Z,100525.64
2018-08-23T07:44:19.035Z,100581.61
2018-08-23T07:46:48.839Z,100585.80
2018-08-23T07:49:18.815Z,100583.09
2018-08-23T07:51:48.642Z,100581.92
2018-08-23T07:57:09.673Z,100573.79
2018-08-23T07:59:39.557Z,100579.66
2018-08-23T08:02:13.408Z,100579.39
2018-08-23T08:04:43.328Z,100573.14
2018-08-23T08:07:17.819Z,100570.92
2018-08-23T08:09:47.313Z,100567.60
2018-08-23T08:12:22.161Z,100573.71
2018-08-23T08:14:52.054Z,100563.38
2018-08-23T08:17:29.291Z,100564.86
2018-08-23T08:19:59.374Z,100561.97
2018-08-23T08:22:29.445Z,100559.55
2018-08-23T08:25:08.027Z,100554.55
2018-08-23T08:27:38.555Z,100562.81
2018-08-23T08:30:14.933Z,100560.41
2018-08-23T08:32:44.735Z,100557.11
2018-08-23T08:35:17.447Z,100551.19
2018-08-23T08:37:49.206Z,100552.52
2018-08-23T08:40:23.105Z,100549.60
2018-08-23T08:42:52.932Z,100547.69
2018-08-23T08:45:26.113Z,100548.25
2018-08-23T08:48:25.044Z,100546.22
2018-08-23T08:51:17.005Z,100540.71
2018-08-23T08:53:47.671Z,100541.08
2018-08-23T08:56:56.358Z,100535.66
2018-08-23T08:59:32.624Z,100539.31
2018-08-23T09:02:02.460Z,100538.61
2018-08-23T09:04:37.147Z,100529.47
2018-08-23T09:07:07.046Z,100528.25
2018-08-23T09:09:40.381Z,100525.36
2018-08-23T09:12:11.269Z,100524.14
2018-08-23T09:14:42.353Z,100515.96
2018-08-23T09:17:34.136Z,100510.16
2018-08-23T09:20:05.917Z,100508.08
2018-08-23T09:22:37.897Z,100505.23
2018-08-23T09:25:10.313Z,100499.83
2018-08-23T09:27:40.188Z,100496.17
2018-08-23T09:30:15.152Z,100496.41
2018-08-23T09:32:45.030Z,100486.64
2018-08-23T09:35:15.007Z,100488.70
2018-08-23T09:37:44.989Z,100490.59
2018-08-23T09:40:14.907Z,100490.08
2018-08-23T09:42:44.716Z,100486.78
2018-08-23T09:45:16.642Z,100483.58
2018-08-23T09:47:46.091Z,100474.91
2018-08-23T09:50:15.940Z,100468.16
2018-08-23T09:52:47.034Z,100466.45
2018-08-23T09:55:17.999Z,100465.59
2018-08-23T09:57:48.316Z,100464.03
2018-08-23T10:00:23.276Z,100460.30
2018-08-23T10:02:57.933Z,100459.50
2018-08-23T10:05:33.016Z,100449.38
2018-08-23T10:08:07.712Z,100439.48
2018-08-23T10:10:42.532Z,100445.45
2018-08-23T10:13:18.211Z,100443.86
2018-08-23T10:15:52.806Z,100436.17
2018-08-23T10:18:27.689Z,100434.39
2018-08-23T10:20:59.201Z,100433.65
2018-08-23T10:23:29.078Z,100435.77
2018-08-23T10:26:00.028Z,100432.19
2018-08-23T10:28:35.029Z,100425.46
2018-08-23T10:31:04.668Z,100418.73
2018-08-23T10:33:34.490Z,100418.44
2018-08-23T10:36:04.223Z,100415.69
2018-08-23T10:38:34.216Z,100408.05
2018-08-23T10:41:05.717Z,100403.16
2018-08-23T10:43:40.403Z,100393.67
2018-08-23T10:46:10.213Z,100394.83
2018-08-23T10:48:39.646Z,100395.41
2018-08-23T10:51:09.527Z,100396.81
2018-08-23T10:53:38.847Z,100399.89
2018-08-23T10:56:08.337Z,100396.59
2018-08-23T10:58:37.775Z,100396.34
2018-08-23T11:01:07.883Z,100395.72
2018-08-23T11:03:37.380Z,100389.76
2018-08-23T11:06:07.060Z,100383.82
2018-08-23T11:08:37.958Z,100378.34
2018-08-23T11:11:13.044Z,100375.13
2018-08-23T11:13:47.485Z,100368.29
2018-08-23T11:16:22.203Z,100368.09
2018-08-23T11:18:57.187Z,100365.34
2018-08-23T11:21:26.834Z,100362.67
2018-08-23T11:23:56.620Z,100365.46
2018-08-23T11:26:26.951Z,100361.39
2018-08-23T11:28:56.955Z,100355.91
2018-08-23T11:31:28.941Z,100357.56
2018-08-23T11:33:58.960Z,100353.86
2018-08-23T11:36:29.087Z,100349.91
2018-08-23T11:38:58.939Z,100349.42
2018-08-23T11:41:28.767Z,100345.20
2018-08-23T11:43:58.715Z,100343.36
2018-08-23T11:46:28.847Z,100340.66
2018-08-23T11:48:58.472Z,100331.99
2018-08-23T11:51:28.431Z,100327.55
2018-08-23T11:53:59.666Z,100329.29
2018-08-23T11:56:29.411Z,100327.20
2018-08-23T11:58:59.105Z,100319.69
2018-08-23T12:01:29.667Z,100319.34
2018-08-23T12:04:00.011Z,100313.77
2018-08-23T12:06:31.128Z,100308.02
2018-08-23T12:09:01.111Z,100313.20
2018-08-23T12:11:31.191Z,100304.36
2018-08-23T12:14:01.464Z,100299.83
2018-08-23T12:16:32.819Z,100297.42
2018-08-23T12:19:03.806Z,100297.80
2018-08-23T12:21:36.995Z,100294.17
2018-08-23T12:24:06.645Z,100288.77
2018-08-23T12:26:36.703Z,100283.09
2018-08-23T12:29:08.418Z,100294.73
2018-08-23T12:31:39.973Z,100281.38
2018-08-23T12:34:10.910Z,100284.28
2018-08-23T12:36:45.833Z,100279.00
2018-08-23T12:40:26.520Z,100271.63
2018-08-23T12:42:57.083Z,100271.11
2018-08-23T12:45:26.755Z,100267.67
2018-08-23T12:47:56.695Z,100265.14
2018-08-23T12:50:26.648Z,100261.20
2018-08-23T12:52:59.632Z,100155.84
2018-08-23T12:55:57.584Z,100253.52
2018-08-23T12:58:29.151Z,100252.62
2018-08-23T13:00:59.874Z,100251.11
2018-08-23T13:04:28.921Z,100248.40
2018-08-23T13:07:00.933Z,100245.78
2018-08-23T13:09:30.547Z,100247.05
2018-08-23T13:12:00.065Z,100239.30
2018-08-23T13:14:29.705Z,100231.67
2018-08-23T13:16:59.759Z,100226.50
2018-08-23T13:19:29.590Z,100220.84
2018-08-23T13:22:01.555Z,100219.16
2018-08-23T13:24:31.938Z,100215.27
2018-08-23T13:27:01.867Z,100208.09
2018-08-23T13:29:31.385Z,100210.84
2018-08-23T13:32:00.875Z,100217.84
2018-08-23T13:34:30.527Z,100206.38
2018-08-23T13:37:00.621Z,100204.45
2018-08-23T13:39:30.116Z,100198.77
2018-08-23T13:42:00.165Z,100192.42
2018-08-23T13:44:29.644Z,100190.45
2018-08-23T13:46:59.157Z,100182.67
2018-08-23T13:49:28.700Z,100180.69
2018-08-23T13:52:34.810Z,100175.11
2018-08-23T13:55:06.987Z,100175.02
2018-08-23T13:57:38.474Z,100164.03
2018-08-23T14:01:01.342Z,100165.77
2018-08-23T14:20:41.793Z,100142.19
2018-08-23T14:23:16.649Z,100133.52
2018-08-23T14:25:46.521Z,100134.89
2018-08-23T14:28:16.166Z,100127.56
2018-08-23T14:30:45.666Z,100121.48
2018-08-23T14:33:15.698Z,100123.72
2018-08-23T14:36:43.013Z,100114.65
2018-08-23T14:39:13.274Z,100118.58
2018-08-23T14:41:43.826Z,100115.66
2018-08-23T14:44:14.413Z,100105.50
2018-08-23T14:47:20.905Z,100104.39
2018-08-23T14:50:13.501Z,100096.36
2018-08-23T14:52:46.523Z,100089.13
2018-08-23T14:58:16.476Z,100090.45
2018-08-23T15:03:47.063Z,100064.72
2018-08-23T15:06:17.351Z,99957.91
2018-08-23T15:08:48.094Z,100083.14
2018-08-23T15:11:17.823Z,100077.58
2018-08-23T15:27:34.649Z,100064.83
2018-08-23T15:32:02.449Z,100062.98
2018-08-23T15:34:45.833Z,100062.72
2018-08-23T15:37:15.915Z,100060.08
2018-08-23T15:39:46.158Z,100069.38
2018-08-23T15:42:15.867Z,100067.42
2018-08-23T15:44:47.931Z,100062.67
2018-08-23T15:47:17.740Z,100062.95
2018-08-23T15:49:48.051Z,100059.87
2018-08-23T15:52:20.595Z,100050.35
2018-08-23T15:58:11.301Z,100043.99
2018-08-23T16:00:47.317Z,100039.72
2018-08-23T16:21:39.607Z,100031.31
2018-08-23T16:27:12.052Z,100026.83
2018-08-23T16:29:46.206Z,100027.61
2018-08-23T16:32:21.415Z,100026.78
2018-08-23T16:34:51.379Z,100029.52
2018-08-23T16:37:21.026Z,100027.83
2018-08-23T16:39:50.513Z,100021.70
2018-08-23T16:42:20.228Z,100024.94
2018-08-23T16:44:54.109Z,100016.56
2018-08-23T16:47:25.046Z,100021.17
2018-08-23T16:49:55.595Z,100020.31
2018-08-23T16:52:25.520Z,100022.69
2018-08-23T16:54:55.256Z,100029.52
2018-08-23T16:57:26.279Z,100056.81
2018-08-23T16:59:56.212Z,100141.31
2018-08-23T17:02:26.260Z,100154.19
2018-08-23T17:04:55.803Z,100158.60
2018-08-23T17:07:25.580Z,100172.92
2018-08-23T17:09:55.738Z,100188.95
2018-08-23T17:12:25.332Z,100181.09
2018-08-23T17:14:54.835Z,100188.50
2018-08-23T17:17:31.748Z,100201.95
2018-08-23T17:20:01.732Z,100208.66
2018-08-23T17:22:31.412Z,100216.39
2018-08-23T17:25:01.666Z,100219.13
2018-08-23T17:27:31.100Z,100240.78
2018-08-23T17:30:00.656Z,100238.31
2018-08-23T17:32:30.174Z,100232.90
2018-08-23T17:34:59.764Z,100243.81
2018-08-23T17:37:29.841Z,100246.25
2018-08-23T17:39:59.347Z,100247.11
2018-08-23T17:42:37.984Z,100248.55
2018-08-23T17:45:08.024Z,100253.16
2018-08-23T17:47:41.396Z,100244.77
2018-08-23T17:50:11.265Z,100251.62
2018-08-23T17:52:41.224Z,100239.84
2018-08-23T17:55:11.128Z,100237.63
2018-08-23T17:57:40.868Z,100235.42
2018-08-23T18:00:10.994Z,100227.55
2018-08-23T18:02:40.728Z,100218.53
2018-08-23T18:05:10.872Z,100212.17
2018-08-23T18:07:40.384Z,100228.91
2018-08-23T18:10:09.876Z,100225.39
2018-08-23T18:12:39.628Z,100216.47
2018-08-23T18:15:09.871Z,100223.73
2018-08-23T18:17:40.778Z,100228.45
2018-08-23T18:20:10.868Z,100226.11
2018-08-23T18:22:40.314Z,100226.59
2018-08-23T18:25:10.141Z,100239.56
2018-08-23T18:27:40.862Z,100241.22
2018-08-23T18:30:13.156Z,100247.20
2018-08-23T18:32:42.990Z,100239.06
2018-08-23T18:35:12.780Z,100234.20
2018-08-23T18:37:42.695Z,100217.16
2018-08-23T18:40:12.129Z,100232.74
2018-08-23T18:42:41.578Z,100229.18
2018-08-23T18:45:11.097Z,100218.34
2018-08-23T18:47:40.927Z,100217.92
2018-08-23T18:50:10.417Z,100215.60
2018-08-23T18:52:39.833Z,100202.98
2018-08-23T18:55:09.334Z,100188.03
2018-08-23T18:57:39.181Z,100181.89
2018-08-23T19:00:09.215Z,100171.02
2018-08-23T19:02:38.916Z,100158.13
2018-08-23T19:05:08.761Z,100133.08
2018-08-23T19:07:41.567Z,100122.39
2018-08-23T19:10:12.978Z,100124.78
2018-08-23T19:12:42.383Z,100119.03
2018-08-23T19:15:11.838Z,100127.27
2018-08-23T19:17:43.151Z,100125.81
2018-08-23T19:20:13.622Z,100116.44
2018-08-23T19:22:43.467Z,100102.72
2018-08-23T19:25:13.113Z,100100.39
2018-08-23T19:27:42.583Z,100119.39
2018-08-23T19:30:12.404Z,100112.05
2018-08-23T19:32:42.183Z,100127.25
2018-08-23T19:35:11.587Z,100141.14
2018-08-23T19:37:41.423Z,100134.65
2018-08-23T19:40:10.885Z,100139.98
2018-08-23T19:42:40.317Z,100142.35
2018-08-23T19:45:09.772Z,100137.91
2018-08-23T19:47:43.415Z,100141.58
2018-08-23T19:50:13.559Z,100140.74
2018-08-23T19:52:42.999Z,100146.95
2018-08-23T19:55:12.815Z,100146.22
2018-08-23T19:57:42.338Z,100124.66
2018-08-23T20:00:11.944Z,100128.80
2018-08-23T20:02:41.345Z,100141.08
2018-08-23T20:05:11.146Z,100167.29
2018-08-23T20:07:40.627Z,100168.39
2018-08-23T20:10:10.131Z,100154.70
2018-08-23T20:12:39.941Z,100155.08
2018-08-23T20:15:09.412Z,100138.87
2018-08-23T20:17:39.319Z,100139.63
2018-08-23T20:20:09.170Z,100124.63
2018-08-23T20:22:38.931Z,100122.34
2018-08-23T20:25:08.755Z,100125.17
2018-08-23T20:27:38.528Z,100133.45
2018-08-23T20:30:08.021Z,100154.14
2018-08-23T20:32:37.447Z,100158.19
2018-08-23T20:35:06.890Z,100156.92
2018-08-23T20:37:36.703Z,100158.25
2018-08-23T20:40:07.703Z,100168.41
2018-08-23T20:42:37.967Z,100161.64
2018-08-23T20:45:07.945Z,100167.66
2018-08-23T20:47:37.311Z,100166.90
2018-08-23T20:50:07.115Z,100172.53
2018-08-23T20:52:36.950Z,100171.91
2018-08-23T20:55:06.445Z,100172.86
2018-08-23T20:57:35.840Z,100177.51
2018-08-23T21:00:06.213Z,100191.52
2018-08-23T21:02:35.991Z,100200.16
2018-08-23T21:05:05.807Z,100195.36
2018-08-23T21:07:35.503Z,100197.05
2018-08-23T21:10:05.176Z,100191.20
2018-08-23T21:12:34.950Z,100180.70
2018-08-23T21:15:04.770Z,100192.59
2018-08-23T21:17:34.133Z,100189.09
2018-08-23T21:20:03.626Z,100188.45
2018-08-23T21:22:33.334Z,100193.66
2018-08-23T21:25:03.028Z,100192.77
2018-08-23T21:27:32.408Z,100192.18
2018-08-23T21:30:02.119Z,100192.41
2018-08-23T21:32:31.784Z,100196.43
2018-08-23T21:35:01.496Z,100185.59
2018-08-23T21:37:31.237Z,100188.47
2018-08-23T21:40:00.946Z,100189.81
2018-08-23T21:42:30.658Z,100190.58
2018-08-23T21:45:00.001Z,100187.22
2018-08-23T21:47:29.686Z,100190.59
2018-08-23T21:49:59.053Z,100187.27
2018-08-23T21:52:28.808Z,100189.09
2018-08-23T21:54:58.120Z,100183.51
2018-08-23T21:57:27.846Z,100181.92
2018-08-23T21:59:57.229Z,100173.65
2018-08-23T22:02:26.592Z,100169.88
2018-08-23T22:04:57.717Z,100161.72
2018-08-23T22:07:27.091Z,100165.61
2018-08-23T22:09:56.907Z,100165.23
2018-08-23T22:12:27.184Z,100161.52
2018-08-23T22:14:57.042Z,100162.77
2018-08-23T22:17:26.884Z,100155.73
2018-08-23T22:19:56.673Z,100155.05
2018-08-23T22:22:26.417Z,100154.92
2018-08-23T22:24:56.169Z,100161.30
2018-08-23T22:27:25.927Z,100159.19
2018-08-23T22:29:55.329Z,100156.97
2018-08-23T22:32:25.211Z,100161.30
2018-08-23T22:34:54.953Z,100161.88
2018-08-23T22:37:24.653Z,100158.90
2018-08-23T22:39:54.517Z,100154.39
2018-08-23T22:42:24.257Z,100149.11
2018-08-23T22:44:54.005Z,100151.41
2018-08-23T22:47:23.753Z,100147.77
2018-08-23T22:49:53.481Z,100140.67
2018-08-23T22:52:23.317Z,100142.11
2018-08-23T22:54:53.013Z,100132.52
2018-08-23T22:57:22.833Z,100119.74
2018-08-23T22:59:52.385Z,100116.95
2018-08-23T23:02:27.341Z,100118.17
2018-08-23T23:04:57.152Z,100109.18
2018-08-23T23:07:27.483Z,100113.30
2018-08-23T23:09:57.277Z,100112.69
2018-08-23T23:12:27.021Z,100102.80
2018-08-23T23:14:56.806Z,100097.13
2018-08-23T23:17:26.637Z,100095.69
2018-08-23T23:19:56.354Z,100097.28
2018-08-23T23:22:26.184Z,100097.94
2018-08-23T23:25:00.997Z,100098.84
2018-08-23T23:27:31.428Z,100101.44
2018-08-23T23:30:01.285Z,100102.09
2018-08-23T23:32:31.127Z,100098.91
2018-08-23T23:35:00.534Z,100104.57
2018-08-23T23:37:30.187Z,100105.16
2018-08-23T23:39:59.928Z,100097.23
2018-08-23T23:42:29.336Z,100097.41
2018-08-23T23:44:59.247Z,100098.52
2018-08-23T23:47:28.996Z,100099.28
2018-08-23T23:49:58.721Z,100106.48
2018-08-23T23:52:28.444Z,100105.63
2018-08-23T23:54:58.164Z,100108.55
2018-08-23T23:57:27.824Z,100108.87
2018-08-23T23:59:57.165Z,100106.31
